createdAt,value
2022-09-16T00:01:29.222Z,14.40
2022-09-16T00:06:53.627Z,14.40
2022-09-16T00:11:46.560Z,14.38
2022-09-16T00:16:46.563Z,14.35
2022-09-16T00:21:46.431Z,14.33
2022-09-16T00:26:46.351Z,14.32
2022-09-16T00:31:46.335Z,14.31
2022-09-16T00:36:46.200Z,14.32
2022-09-16T00:41:46.154Z,14.33
2022-09-16T00:46:46.156Z,14.35
2022-09-16T00:51:46.017Z,14.37
2022-09-16T00:56:45.948Z,14.38
2022-09-16T01:01:45.928Z,14.40
2022-09-16T01:06:45.869Z,14.42
2022-09-16T01:11:45.739Z,14.43
2022-09-16T01:16:45.688Z,14.43
2022-09-16T01:21:45.614Z,14.43
2022-09-16T01:26:45.566Z,14.42
2022-09-16T01:31:45.539Z,14.40
2022-09-16T01:36:45.427Z,14.38
2022-09-16T01:41:45.346Z,14.36
2022-09-16T01:46:45.365Z,14.35
2022-09-16T01:51:45.218Z,14.33
2022-09-16T01:56:45.145Z,14.30
2022-09-16T02:01:45.205Z,14.28
2022-09-16T02:06:45.039Z,14.26
2022-09-16T02:11:44.991Z,14.25
2022-09-16T02:16:44.890Z,14.23
2022-09-16T02:21:46.079Z,14.21
2022-09-16T02:26:44.748Z,14.19
2022-09-16T02:31:44.695Z,14.17
2022-09-16T02:36:44.618Z,14.13
2022-09-16T02:41:44.547Z,14.09
2022-09-16T02:46:44.552Z,14.03
2022-09-16T02:51:44.426Z,13.97
2022-09-16T02:56:44.341Z,13.91
2022-09-16T03:01:44.357Z,13.84
2022-09-16T03:06:44.222Z,13.76
2022-09-16T03:11:44.150Z,13.68
2022-09-16T03:16:46.146Z,13.61
2022-09-16T03:21:44.058Z,13.54
2022-09-16T03:26:44.033Z,13.47
2022-09-16T03:31:43.902Z,13.41
2022-09-16T03:36:43.833Z,13.36
2022-09-16T03:41:43.750Z,13.30
2022-09-16T03:46:43.683Z,13.25
2022-09-16T03:51:43.646Z,13.20
2022-09-16T03:56:43.553Z,13.16
2022-09-16T04:01:43.613Z,13.11
2022-09-16T04:06:43.417Z,13.06
2022-09-16T04:11:43.359Z,13.03
2022-09-16T04:16:56.710Z,13.00
2022-09-16T04:21:49.633Z,12.96
2022-09-16T04:26:49.626Z,12.92
2022-09-16T04:31:49.490Z,12.89
2022-09-16T04:36:49.430Z,12.87
2022-09-16T04:41:49.363Z,12.86
2022-09-16T04:46:49.313Z,12.86
2022-09-16T04:51:49.217Z,12.84
2022-09-16T04:56:49.230Z,12.81
2022-09-16T05:01:49.217Z,12.78
2022-09-16T05:06:49.041Z,12.75
2022-09-16T05:11:48.958Z,12.71
2022-09-16T05:16:48.898Z,12.67
2022-09-16T05:21:48.877Z,12.62
2022-09-16T05:26:48.771Z,12.60
2022-09-16T05:31:48.750Z,12.58
2022-09-16T05:36:48.637Z,12.59
2022-09-16T05:41:48.584Z,12.61
2022-09-16T05:46:48.504Z,12.63
2022-09-16T05:51:48.425Z,12.65
2022-09-16T05:56:48.373Z,12.67
2022-09-16T06:01:48.375Z,12.73
2022-09-16T06:06:48.268Z,12.82
2022-09-16T06:11:48.199Z,12.91
2022-09-16T06:16:48.121Z,12.99
2022-09-16T06:21:48.081Z,13.07
2022-09-16T06:26:47.972Z,13.21
2022-09-16T06:31:47.898Z,13.47
2022-09-16T06:36:47.854Z,13.79
2022-09-16T06:41:47.898Z,14.07
2022-09-16T06:46:47.749Z,14.29
2022-09-16T06:51:47.670Z,14.47
2022-09-16T06:56:47.682Z,14.59
2022-09-16T07:01:47.534Z,14.65
2022-09-16T07:11:48.433Z,14.74
2022-09-16T07:16:47.364Z,14.82
2022-09-16T07:21:47.279Z,15.31
2022-09-16T07:26:47.178Z,17.01
2022-09-16T07:31:47.127Z,19.25
2022-09-16T07:36:47.045Z,20.29
2022-09-16T07:41:46.981Z,20.23
2022-09-16T07:46:46.949Z,19.99
2022-09-16T07:51:46.853Z,19.80
2022-09-16T07:56:46.768Z,20.59
2022-09-16T08:01:46.817Z,21.32
2022-09-16T08:06:46.673Z,21.22
2022-09-16T08:11:46.612Z,20.92
2022-09-16T08:16:46.633Z,20.47
2022-09-16T08:21:46.443Z,20.26
2022-09-16T08:26:46.488Z,20.62
2022-09-16T08:31:46.350Z,21.24
2022-09-16T08:36:46.327Z,21.38
2022-09-16T08:41:46.199Z,20.80
2022-09-16T08:46:46.137Z,19.98
2022-09-16T08:51:46.063Z,19.34
2022-09-16T08:56:45.997Z,19.58
2022-09-16T09:01:46.290Z,20.41
2022-09-16T09:06:45.837Z,22.33
2022-09-16T09:11:46.000Z,25.07
2022-09-16T09:16:45.788Z,26.86
2022-09-16T09:21:45.630Z,26.67
2022-09-16T09:26:45.631Z,26.42
2022-09-16T09:31:45.600Z,26.49
2022-09-16T09:36:45.481Z,25.93
2022-09-16T09:41:45.429Z,24.83
2022-09-16T09:46:45.502Z,23.83
2022-09-16T09:51:45.254Z,23.08
2022-09-16T09:56:45.166Z,22.39
2022-09-16T10:01:45.172Z,21.66
2022-09-16T10:06:45.132Z,21.21
2022-09-16T10:11:44.995Z,21.21
2022-09-16T10:16:45.001Z,21.44
2022-09-16T10:21:44.852Z,22.73
2022-09-16T10:26:44.820Z,23.93
2022-09-16T10:31:44.740Z,25.86
2022-09-16T10:36:44.662Z,27.78
2022-09-16T10:41:44.573Z,27.61
2022-09-16T10:46:44.514Z,26.94
2022-09-16T10:51:44.468Z,26.89
2022-09-16T10:56:44.372Z,28.49
2022-09-16T11:01:46.473Z,30.14
2022-09-16T11:06:44.324Z,30.33
2022-09-16T11:11:44.177Z,29.31
2022-09-16T11:16:44.257Z,29.69
2022-09-16T11:21:44.076Z,31.81
2022-09-16T11:26:44.188Z,32.38
2022-09-16T11:31:44.028Z,31.19
2022-09-16T11:36:43.939Z,29.34
2022-09-16T11:41:43.806Z,27.55
2022-09-16T11:46:43.780Z,27.60
2022-09-16T11:51:43.675Z,29.09
2022-09-16T11:56:43.614Z,30.59
2022-09-16T12:01:43.597Z,30.79
2022-09-16T12:06:43.465Z,29.94
2022-09-16T12:11:43.405Z,28.39
2022-09-16T12:16:43.326Z,26.75
2022-09-16T12:21:43.485Z,25.22
2022-09-16T12:26:43.416Z,24.32
2022-09-16T12:31:43.336Z,24.37
2022-09-16T12:36:43.070Z,24.97
2022-09-16T12:41:42.995Z,25.68
2022-09-16T12:46:43.044Z,26.26
2022-09-16T12:51:45.849Z,26.58
2022-09-16T12:56:43.842Z,26.32
2022-09-16T13:01:42.776Z,25.92
2022-09-16T13:06:42.740Z,25.68
2022-09-16T13:16:43.572Z,25.22
2022-09-16T13:21:42.594Z,25.05
2022-09-16T13:26:42.458Z,24.76
2022-09-16T13:31:42.401Z,24.24
2022-09-16T13:36:42.265Z,23.29
2022-09-16T13:41:42.243Z,22.04
2022-09-16T13:46:42.269Z,20.72
2022-09-16T13:51:42.084Z,19.51
2022-09-16T13:56:42.002Z,18.56
2022-09-16T14:01:58.936Z,17.80
2022-09-16T14:06:43.025Z,17.13
2022-09-16T14:11:41.836Z,16.56
2022-09-16T14:16:42.889Z,16.16
2022-09-16T14:21:41.660Z,15.99
2022-09-16T14:26:41.612Z,16.05
2022-09-16T14:31:41.575Z,16.22
2022-09-16T14:36:41.479Z,16.34
2022-09-16T14:41:41.479Z,16.56
2022-09-16T14:46:41.396Z,16.90
2022-09-16T14:51:41.314Z,17.21
2022-09-16T14:56:41.228Z,17.38
2022-09-16T15:01:41.194Z,17.35
2022-09-16T15:06:41.102Z,17.14
2022-09-16T15:11:48.086Z,16.87
2022-09-16T15:16:41.982Z,16.66
2022-09-16T15:21:40.957Z,16.52
2022-09-16T15:26:40.848Z,16.40
2022-09-16T15:31:40.802Z,16.29
2022-09-16T15:36:40.718Z,16.18
2022-09-16T15:41:40.629Z,16.09
2022-09-16T15:46:40.605Z,16.02
2022-09-16T15:51:40.491Z,16.03
2022-09-16T15:56:44.452Z,16.14
2022-09-16T16:01:40.399Z,16.22
2022-09-16T16:06:40.298Z,16.16
2022-09-16T16:11:40.217Z,16.10
2022-09-16T16:17:01.555Z,16.13
2022-09-16T16:21:41.091Z,16.17
2022-09-16T16:26:40.091Z,16.22
2022-09-16T16:31:40.065Z,16.26
2022-09-16T16:36:39.905Z,16.26
2022-09-16T16:41:39.808Z,16.18
2022-09-16T16:46:39.914Z,15.99
2022-09-16T16:51:39.709Z,15.72
2022-09-16T16:56:39.705Z,15.40
2022-09-16T17:01:39.634Z,15.05
2022-09-16T17:06:39.543Z,14.72
2022-09-16T17:11:39.503Z,14.43
2022-09-16T17:16:39.374Z,14.18
2022-09-16T17:21:39.283Z,13.96
2022-09-16T17:26:39.288Z,13.77
2022-09-16T17:31:39.142Z,13.62
2022-09-16T17:36:39.086Z,13.49
2022-09-16T17:41:39.025Z,13.38
2022-09-16T17:46:39.081Z,13.25
2022-09-16T17:51:38.899Z,13.11
2022-09-16T17:56:38.836Z,12.98
2022-09-16T18:01:38.744Z,12.87
2022-09-16T18:06:38.685Z,12.76
2022-09-16T18:11:38.627Z,12.67
2022-09-16T18:16:38.597Z,12.61
2022-09-16T18:21:38.589Z,12.57
2022-09-16T18:26:38.483Z,12.53
2022-09-16T18:31:38.367Z,12.50
2022-09-16T18:36:38.293Z,12.46
2022-09-16T18:41:38.259Z,12.41
2022-09-16T18:46:38.214Z,12.34
2022-09-16T18:51:38.097Z,12.27
2022-09-16T18:56:38.106Z,12.20
2022-09-16T19:01:38.142Z,12.13
2022-09-16T19:06:37.913Z,12.06
2022-09-16T19:11:37.833Z,11.98
2022-09-16T19:16:37.770Z,11.91
2022-09-16T19:21:37.704Z,11.84
2022-09-16T19:26:37.619Z,11.78
2022-09-16T19:31:37.564Z,11.71
2022-09-16T19:36:37.514Z,11.66
2022-09-16T19:41:37.446Z,11.60
2022-09-16T19:46:37.402Z,11.55
2022-09-16T19:51:37.277Z,11.50
2022-09-16T19:56:37.344Z,11.45
2022-09-16T20:01:37.204Z,11.39
2022-09-16T20:06:37.118Z,11.34
2022-09-16T20:11:37.068Z,11.29
2022-09-16T20:16:37.025Z,11.24
2022-09-16T20:21:36.967Z,11.20
2022-09-16T20:26:36.891Z,11.16
2022-09-16T20:31:36.856Z,11.14
2022-09-16T20:36:36.704Z,11.12
2022-09-16T20:41:36.645Z,11.09
2022-09-16T20:46:36.590Z,11.07
2022-09-16T20:51:36.485Z,11.04
2022-09-16T20:56:38.868Z,11.01
2022-09-16T21:01:36.373Z,10.99
2022-09-16T21:06:36.356Z,10.98
2022-09-16T21:11:36.349Z,10.95
2022-09-16T21:16:36.273Z,10.92
2022-09-16T21:21:36.084Z,10.89
2022-09-16T21:26:36.035Z,10.86
2022-09-16T21:31:36.020Z,10.84
2022-09-16T21:36:35.893Z,10.83
2022-09-16T21:41:35.956Z,10.81
2022-09-16T21:46:35.846Z,10.79
2022-09-16T21:51:35.708Z,10.77
2022-09-16T21:56:35.638Z,10.75
2022-09-16T22:01:35.626Z,10.72
2022-09-16T22:06:35.653Z,10.70
2022-09-16T22:11:35.643Z,10.68
2022-09-16T22:16:35.389Z,10.66
2022-09-16T22:21:35.354Z,10.66
2022-09-16T22:26:35.303Z,10.67
2022-09-16T22:31:35.298Z,10.69
2022-09-16T22:36:35.124Z,10.71
2022-09-16T22:41:35.063Z,10.74
2022-09-16T22:46:35.038Z,10.77
2022-09-16T22:51:34.919Z,10.79
2022-09-16T22:56:34.846Z,10.81
2022-09-16T23:01:34.825Z,10.82
2022-09-16T23:06:34.740Z,10.81
2022-09-16T23:11:34.672Z,10.79
2022-09-16T23:16:34.630Z,10.76
2022-09-16T23:21:34.520Z,10.74
2022-09-16T23:26:34.445Z,10.72
2022-09-16T23:31:34.550Z,10.71
2022-09-16T23:36:34.322Z,10.69
2022-09-16T23:41:34.258Z,10.66
2022-09-16T23:46:34.250Z,10.64
2022-09-16T23:51:34.142Z,10.61
2022-09-16T23:56:34.036Z,10.58
